sensor_id;sensor_type;location;lat;lon;timestamp;P1;durP1;ratioP1;P2;durP2;ratioP2
84414;SDS011;74706;51.520;17.224;2024-01-30T00:06:41;19.65;;;7.55;;
84414;SDS011;74706;51.520;17.224;2024-01-30T00:15:04;19.98;;;6.65;;
84414;SDS011;74706;51.520;17.224;2024-01-30T00:23:30;14.73;;;5.90;;
84414;SDS011;74706;51.520;17.224;2024-01-30T00:31:51;16.92;;;5.78;;
84414;SDS011;74706;51.520;17.224;2024-01-30T00:40:15;13.90;;;6.22;;
84414;SDS011;74706;51.520;17.224;2024-01-30T00:48:36;15.90;;;6.72;;
84414;SDS011;74706;51.520;17.224;2024-01-30T00:56:58;18.10;;;7.63;;
84414;SDS011;74706;51.520;17.224;2024-01-30T01:05:20;18.95;;;7.78;;
84414;SDS011;74706;51.520;17.224;2024-01-30T01:13:43;16.50;;;7.82;;
84414;SDS011;74706;51.520;17.224;2024-01-30T01:22:06;28.95;;;12.20;;
84414;SDS011;74706;51.520;17.224;2024-01-30T01:30:29;27.58;;;12.32;;
84414;SDS011;74706;51.520;17.224;2024-01-30T01:38:52;21.33;;;10.23;;
84414;SDS011;74706;51.520;17.224;2024-01-30T01:47:14;19.85;;;8.23;;
84414;SDS011;74706;51.520;17.224;2024-01-30T01:55:40;21.70;;;8.10;;
84414;SDS011;74706;51.520;17.224;2024-01-30T02:04:07;19.08;;;8.75;;
84414;SDS011;74706;51.520;17.224;2024-01-30T02:12:30;22.13;;;7.70;;
84414;SDS011;74706;51.520;17.224;2024-01-30T02:20:52;24.00;;;8.80;;
84414;SDS011;74706;51.520;17.224;2024-01-30T02:29:17;18.70;;;8.27;;
84414;SDS011;74706;51.520;17.224;2024-01-30T02:37:43;20.73;;;7.97;;
84414;SDS011;74706;51.520;17.224;2024-01-30T02:46:04;18.40;;;8.98;;
84414;SDS011;74706;51.520;17.224;2024-01-30T02:54:27;18.88;;;8.65;;
84414;SDS011;74706;51.520;17.224;2024-01-30T03:02:52;26.60;;;10.38;;
84414;SDS011;74706;51.520;17.224;2024-01-30T03:11:14;25.42;;;10.75;;
84414;SDS011;74706;51.520;17.224;2024-01-30T03:19:37;24.40;;;12.25;;
84414;SDS011;74706;51.520;17.224;2024-01-30T03:27:58;24.92;;;10.60;;
84414;SDS011;74706;51.520;17.224;2024-01-30T03:36:21;23.10;;;10.50;;
84414;SDS011;74706;51.520;17.224;2024-01-30T03:44:49;25.15;;;10.65;;
84414;SDS011;74706;51.520;17.224;2024-01-30T03:53:14;31.15;;;14.15;;
84414;SDS011;74706;51.520;17.224;2024-01-30T04:01:35;28.40;;;12.15;;
84414;SDS011;74706;51.520;17.224;2024-01-30T04:09:59;19.40;;;7.70;;
84414;SDS011;74706;51.520;17.224;2024-01-30T04:18:21;23.38;;;9.90;;
84414;SDS011;74706;51.520;17.224;2024-01-30T04:26:46;21.13;;;8.77;;
84414;SDS011;74706;51.520;17.224;2024-01-30T04:35:11;20.38;;;8.98;;
84414;SDS011;74706;51.520;17.224;2024-01-30T04:43:33;23.27;;;8.35;;
84414;SDS011;74706;51.520;17.224;2024-01-30T04:51:56;24.13;;;10.05;;
84414;SDS011;74706;51.520;17.224;2024-01-30T05:00:19;23.38;;;9.85;;
84414;SDS011;74706;51.520;17.224;2024-01-30T05:17:11;56.33;;;19.77;;
84414;SDS011;74706;51.520;17.224;2024-01-30T05:25:35;90.85;;;32.78;;
84414;SDS011;74706;51.520;17.224;2024-01-30T05:33:57;45.30;;;19.80;;
84414;SDS011;74706;51.520;17.224;2024-01-30T05:42:19;34.92;;;15.30;;
84414;SDS011;74706;51.520;17.224;2024-01-30T05:50:41;34.03;;;15.85;;
84414;SDS011;74706;51.520;17.224;2024-01-30T05:59:02;34.38;;;16.48;;
84414;SDS011;74706;51.520;17.224;2024-01-30T06:07:27;31.83;;;14.45;;
84414;SDS011;74706;51.520;17.224;2024-01-30T06:15:54;28.30;;;13.45;;
84414;SDS011;74706;51.520;17.224;2024-01-30T06:24:16;25.58;;;11.43;;
84414;SDS011;74706;51.520;17.224;2024-01-30T06:32:40;24.45;;;11.45;;
84414;SDS011;74706;51.520;17.224;2024-01-30T06:41:03;148.57;;;57.03;;
84414;SDS011;74706;51.520;17.224;2024-01-30T06:49:25;53.15;;;22.73;;
84414;SDS011;74706;51.520;17.224;2024-01-30T06:57:50;64.03;;;29.02;;
84414;SDS011;74706;51.520;17.224;2024-01-30T07:06:14;36.35;;;17.42;;
84414;SDS011;74706;51.520;17.224;2024-01-30T07:14:35;39.65;;;16.42;;
84414;SDS011;74706;51.520;17.224;2024-01-30T07:22:57;48.28;;;20.38;;
84414;SDS011;74706;51.520;17.224;2024-01-30T07:31:20;50.85;;;22.40;;
84414;SDS011;74706;51.520;17.224;2024-01-30T07:39:44;57.40;;;27.20;;
84414;SDS011;74706;51.520;17.224;2024-01-30T07:48:08;64.93;;;29.73;;
84414;SDS011;74706;51.520;17.224;2024-01-30T07:56:30;67.13;;;30.27;;
84414;SDS011;74706;51.520;17.224;2024-01-30T08:04:53;54.85;;;24.67;;
84414;SDS011;74706;51.520;17.224;2024-01-30T08:13:19;51.70;;;25.27;;
84414;SDS011;74706;51.520;17.224;2024-01-30T08:21:47;82.82;;;38.10;;
84414;SDS011;74706;51.520;17.224;2024-01-30T08:30:09;70.88;;;30.58;;
84414;SDS011;74706;51.520;17.224;2024-01-30T08:38:31;37.17;;;16.98;;
84414;SDS011;74706;51.520;17.224;2024-01-30T08:46:54;26.27;;;11.55;;
84414;SDS011;74706;51.520;17.224;2024-01-30T08:55:17;14.65;;;6.10;;
84414;SDS011;74706;51.520;17.224;2024-01-30T09:03:40;14.65;;;5.63;;
84414;SDS011;74706;51.520;17.224;2024-01-30T09:12:05;15.85;;;5.20;;
84414;SDS011;74706;51.520;17.224;2024-01-30T09:20:31;12.57;;;4.90;;
84414;SDS011;74706;51.520;17.224;2024-01-30T09:28:53;13.13;;;5.07;;
84414;SDS011;74706;51.520;17.224;2024-01-30T09:37:19;13.13;;;5.10;;
84414;SDS011;74706;51.520;17.224;2024-01-30T09:45:41;11.65;;;4.18;;
84414;SDS011;74706;51.520;17.224;2024-01-30T09:54:13;13.32;;;4.63;;
84414;SDS011;74706;51.520;17.224;2024-01-30T10:02:39;12.77;;;4.95;;
84414;SDS011;74706;51.520;17.224;2024-01-30T10:11:08;9.50;;;4.13;;
84414;SDS011;74706;51.520;17.224;2024-01-30T10:19:33;9.63;;;4.55;;
84414;SDS011;74706;51.520;17.224;2024-01-30T10:27:59;11.23;;;3.75;;
84414;SDS011;74706;51.520;17.224;2024-01-30T10:36:21;12.35;;;5.60;;
84414;SDS011;74706;51.520;17.224;2024-01-30T10:53:30;11.93;;;4.50;;
84414;SDS011;74706;51.520;17.224;2024-01-30T11:01:55;12.45;;;4.32;;
84414;SDS011;74706;51.520;17.224;2024-01-30T11:10:18;8.73;;;3.90;;
84414;SDS011;74706;51.520;17.224;2024-01-30T11:18:41;8.88;;;3.80;;
84414;SDS011;74706;51.520;17.224;2024-01-30T11:27:07;11.90;;;4.40;;
84414;SDS011;74706;51.520;17.224;2024-01-30T11:35:39;10.70;;;4.20;;
84414;SDS011;74706;51.520;17.224;2024-01-30T11:44:03;9.82;;;4.40;;
84414;SDS011;74706;51.520;17.224;2024-01-30T12:00:55;10.00;;;3.80;;
84414;SDS011;74706;51.520;17.224;2024-01-30T12:09:19;9.95;;;4.20;;
84414;SDS011;74706;51.520;17.224;2024-01-30T12:17:42;11.85;;;4.38;;
84414;SDS011;74706;51.520;17.224;2024-01-30T12:26:06;10.75;;;4.20;;
84414;SDS011;74706;51.520;17.224;2024-01-30T12:34:29;9.30;;;4.25;;
84414;SDS011;74706;51.520;17.224;2024-01-30T12:42:54;8.50;;;3.42;;
84414;SDS011;74706;51.520;17.224;2024-01-30T12:59:47;9.00;;;3.30;;
84414;SDS011;74706;51.520;17.224;2024-01-30T13:16:35;8.85;;;3.70;;
84414;SDS011;74706;51.520;17.224;2024-01-30T13:24:58;9.68;;;3.70;;
84414;SDS011;74706;51.520;17.224;2024-01-30T13:33:20;11.55;;;3.72;;
84414;SDS011;74706;51.520;17.224;2024-01-30T13:41:43;12.82;;;4.32;;
84414;SDS011;74706;51.520;17.224;2024-01-30T13:50:05;10.38;;;3.92;;
84414;SDS011;74706;51.520;17.224;2024-01-30T14:06:51;9.82;;;3.65;;
84414;SDS011;74706;51.520;17.224;2024-01-30T14:15:12;8.98;;;3.80;;
84414;SDS011;74706;51.520;17.224;2024-01-30T14:23:38;8.55;;;3.83;;
84414;SDS011;74706;51.520;17.224;2024-01-30T14:32:02;10.80;;;3.92;;
84414;SDS011;74706;51.520;17.224;2024-01-30T14:49:12;9.82;;;3.63;;
84414;SDS011;74706;51.520;17.224;2024-01-30T15:06:07;8.77;;;4.10;;
84414;SDS011;74706;51.520;17.224;2024-01-30T15:14:32;10.50;;;3.85;;
84414;SDS011;74706;51.520;17.224;2024-01-30T15:22:54;13.02;;;4.60;;
84414;SDS011;74706;51.520;17.224;2024-01-30T15:31:22;9.32;;;4.65;;
84414;SDS011;74706;51.520;17.224;2024-01-30T15:39:43;10.43;;;4.05;;
84414;SDS011;74706;51.520;17.224;2024-01-30T15:48:09;11.43;;;4.75;;
84414;SDS011;74706;51.520;17.224;2024-01-30T15:56:32;11.23;;;4.28;;
84414;SDS011;74706;51.520;17.224;2024-01-30T16:04:54;27.35;;;5.50;;
84414;SDS011;74706;51.520;17.224;2024-01-30T16:13:22;13.32;;;4.90;;
84414;SDS011;74706;51.520;17.224;2024-01-30T16:21:44;9.52;;;4.05;;
84414;SDS011;74706;51.520;17.224;2024-01-30T16:38:35;12.63;;;4.75;;
84414;SDS011;74706;51.520;17.224;2024-01-30T16:55:23;15.52;;;5.50;;
84414;SDS011;74706;51.520;17.224;2024-01-30T17:03:50;16.33;;;5.70;;
84414;SDS011;74706;51.520;17.224;2024-01-30T17:12:13;11.90;;;5.68;;
84414;SDS011;74706;51.520;17.224;2024-01-30T17:20:35;14.70;;;6.70;;
84414;SDS011;74706;51.520;17.224;2024-01-30T17:29:00;17.17;;;6.75;;
84414;SDS011;74706;51.520;17.224;2024-01-30T17:37:28;15.45;;;6.95;;
84414;SDS011;74706;51.520;17.224;2024-01-30T17:54:17;15.23;;;7.40;;
84414;SDS011;74706;51.520;17.224;2024-01-30T18:02:40;16.60;;;8.05;;
84414;SDS011;74706;51.520;17.224;2024-01-30T18:11:10;21.58;;;9.20;;
84414;SDS011;74706;51.520;17.224;2024-01-30T18:19:34;17.50;;;9.50;;
84414;SDS011;74706;51.520;17.224;2024-01-30T18:27:58;23.60;;;10.18;;
84414;SDS011;74706;51.520;17.224;2024-01-30T18:36:22;22.77;;;10.85;;
84414;SDS011;74706;51.520;17.224;2024-01-30T18:44:46;23.98;;;10.60;;
84414;SDS011;74706;51.520;17.224;2024-01-30T18:53:09;24.25;;;9.70;;
84414;SDS011;74706;51.520;17.224;2024-01-30T19:01:30;22.55;;;10.50;;
84414;SDS011;74706;51.520;17.224;2024-01-30T19:10:03;19.98;;;10.27;;
84414;SDS011;74706;51.520;17.224;2024-01-30T19:18:29;19.77;;;10.48;;
84414;SDS011;74706;51.520;17.224;2024-01-30T19:26:52;18.40;;;9.13;;
84414;SDS011;74706;51.520;17.224;2024-01-30T19:35:15;20.45;;;9.35;;
84414;SDS011;74706;51.520;17.224;2024-01-30T19:43:37;26.20;;;10.73;;
84414;SDS011;74706;51.520;17.224;2024-01-30T19:52:07;24.10;;;11.48;;
84414;SDS011;74706;51.520;17.224;2024-01-30T20:00:34;22.90;;;10.02;;
84414;SDS011;74706;51.520;17.224;2024-01-30T20:08:59;23.48;;;11.05;;
84414;SDS011;74706;51.520;17.224;2024-01-30T20:17:27;20.73;;;9.90;;
84414;SDS011;74706;51.520;17.224;2024-01-30T20:25:50;22.42;;;10.13;;
84414;SDS011;74706;51.520;17.224;2024-01-30T20:34:15;21.70;;;10.07;;
84414;SDS011;74706;51.520;17.224;2024-01-30T20:42:39;21.38;;;9.80;;
84414;SDS011;74706;51.520;17.224;2024-01-30T20:51:03;24.30;;;10.35;;
84414;SDS011;74706;51.520;17.224;2024-01-30T20:59:32;22.42;;;10.20;;
84414;SDS011;74706;51.520;17.224;2024-01-30T21:07:58;19.70;;;10.00;;
84414;SDS011;74706;51.520;17.224;2024-01-30T21:16:25;18.40;;;9.50;;
84414;SDS011;74706;51.520;17.224;2024-01-30T21:24:47;18.92;;;8.80;;
84414;SDS011;74706;51.520;17.224;2024-01-30T21:33:10;22.95;;;9.90;;
84414;SDS011;74706;51.520;17.224;2024-01-30T21:41:33;21.45;;;9.88;;
84414;SDS011;74706;51.520;17.224;2024-01-30T21:58:19;19.60;;;10.05;;
84414;SDS011;74706;51.520;17.224;2024-01-30T22:06:45;23.02;;;10.10;;
84414;SDS011;74706;51.520;17.224;2024-01-30T22:15:09;19.88;;;10.88;;
84414;SDS011;74706;51.520;17.224;2024-01-30T22:23:39;20.05;;;9.77;;
84414;SDS011;74706;51.520;17.224;2024-01-30T22:32:01;21.63;;;11.30;;
84414;SDS011;74706;51.520;17.224;2024-01-30T22:40:30;23.20;;;10.52;;
84414;SDS011;74706;51.520;17.224;2024-01-30T22:48:55;22.52;;;10.88;;
84414;SDS011;74706;51.520;17.224;2024-01-30T22:57:20;24.27;;;11.80;;
84414;SDS011;74706;51.520;17.224;2024-01-30T23:05:43;25.13;;;11.85;;
84414;SDS011;74706;51.520;17.224;2024-01-30T23:14:04;23.90;;;11.60;;
84414;SDS011;74706;51.520;17.224;2024-01-30T23:22:30;22.50;;;10.80;;
84414;SDS011;74706;51.520;17.224;2024-01-30T23:30:52;21.30;;;10.43;;
84414;SDS011;74706;51.520;17.224;2024-01-30T23:39:17;21.90;;;11.50;;
84414;SDS011;74706;51.520;17.224;2024-01-30T23:47:40;24.95;;;11.80;;
84414;SDS011;74706;51.520;17.224;2024-01-30T23:56:04;22.02;;;11.40;;
